Time;durP1;ratioP1;P1;durP2;ratioP2;P2;SDS_P1;SDS_P2;PMS_P1;PMS_P2;Temp;Humidity;BMP_temperature;BMP_pressure;BME280_temperature;BME280_humidity;BME280_pressure;Samples;Min_cycle;Max_cycle;Signal;HPM_P1;HPM_P2
2023/09/07 00:00:18;;;;;;;0.05;0.05;;;;;;;15.36;100.00;101760.19;5113267;28;20023;-47
2023/09/07 00:02:43;;;;;;;0.10;0.10;;;;;;;15.30;100.00;101758.34;5114180;28;20028;-45
2023/09/07 00:05:09;;;;;;;0.10;0.10;;;;;;;15.29;100.00;101754.84;5112921;28;20027;-45
2023/09/07 00:07:35;;;;;;;0.10;0.10;;;;;;;15.26;100.00;101762.56;5113258;28;20027;-49
2023/09/07 00:10:00;;;;;;;0.10;0.10;;;;;;;15.23;100.00;101756.41;5113691;28;20020;-46
2023/09/07 00:12:27;;;;;;;0.10;0.10;;;;;;;15.18;100.00;101758.03;5112618;28;20110;-46
2023/09/07 00:14:54;;;;;;;0.10;0.10;;;;;;;15.01;100.00;101755.88;5113832;28;20081;-45
2023/09/07 00:17:19;;;;;;;0.10;0.10;;;;;;;15.01;100.00;101755.88;5113379;27;20035;-50
2023/09/07 00:19:47;;;;;;;0.10;0.10;;;;;;;15.09;100.00;101750.88;5112773;28;20026;-45
2023/09/07 00:22:12;;;;;;;0.08;0.08;;;;;;;15.09;100.00;101753.47;5113159;28;20028;-46
2023/09/07 00:24:37;;;;;;;0.10;0.10;;;;;;;15.08;100.00;101757.78;5113624;28;20019;-45
2023/09/07 00:27:05;;;;;;;0.10;0.10;;;;;;;15.03;100.00;101743.81;5112913;28;20024;-50
2023/09/07 00:29:31;;;;;;;0.10;0.10;;;;;;;15.07;100.00;101748.25;5113294;28;20032;-48
2023/09/07 00:31:56;;;;;;;0.10;0.10;;;;;;;15.06;100.00;101743.00;5113532;28;20096;-46
2023/09/07 00:34:21;;;;;;;0.10;0.10;;;;;;;15.01;100.00;101745.47;5112311;28;20034;-46
2023/09/07 00:36:47;;;;;;;0.08;0.08;;;;;;;14.98;100.00;101741.09;5113371;28;20068;-47
2023/09/07 00:39:12;;;;;;;0.10;0.10;;;;;;;15.03;100.00;101743.81;5112871;28;20467;-45
2023/09/07 00:41:38;;;;;;;0.10;0.10;;;;;;;14.98;100.00;101741.09;5112715;28;20023;-45
2023/09/07 00:44:03;;;;;;;0.00;0.00;;;;;;;15.00;100.00;101733.34;5113318;28;20115;-47
2023/09/07 00:46:29;;;;;;;0.10;0.10;;;;;;;14.97;100.00;101735.88;5113440;28;20115;-49
2023/09/07 00:48:55;;;;;;;0.10;0.10;;;;;;;15.00;100.00;101741.13;5112427;28;20467;-45
2023/09/07 00:51:21;;;;;;;0.08;0.08;;;;;;;15.03;100.00;101738.63;5112910;28;20027;-46
2023/09/07 00:53:46;;;;;;;0.00;0.00;;;;;;;14.98;100.00;101737.63;5113608;28;20036;-45
2023/09/07 00:56:12;;;;;;;0.10;0.10;;;;;;;14.95;100.00;101750.50;5113705;28;20104;-46
2023/09/07 00:58:38;;;;;;;0.10;0.10;;;;;;;14.92;100.00;101750.44;5117468;28;20387;-46
2023/09/07 01:01:03;;;;;;;0.03;0.03;;;;;;;14.88;100.00;101749.47;5117458;28;20030;-48
2023/09/07 01:03:31;;;;;;;0.10;0.10;;;;;;;14.97;100.00;101743.66;5116254;28;20110;-46
2023/09/07 01:06:14;;;;;;;0.10;0.10;;;;;;;14.97;100.00;101741.91;5117111;28;20023;-45
2023/09/07 01:08:45;;;;;;;0.10;0.10;;;;;;;14.91;100.00;101752.16;5116468;28;20027;-46
2023/09/07 01:11:20;;;;;;;0.10;0.10;;;;;;;14.77;100.00;101745.72;5117075;27;20485;-47
2023/09/07 01:13:46;;;;;;;0.10;0.10;;;;;;;14.81;100.00;101745.84;5116973;28;20026;-49
2023/09/07 01:16:12;;;;;;;0.10;0.10;;;;;;;14.81;100.00;101740.66;5116173;28;20023;-46
2023/09/07 01:18:41;;;;;;;0.00;0.00;;;;;;;14.72;100.00;101740.41;5117061;28;20031;-46
2023/09/07 01:21:08;;;;;;;0.10;0.10;;;;;;;14.74;100.00;101736.13;5117107;28;20112;-48
2023/09/07 01:23:37;;;;;;;0.10;0.10;;;;;;;14.69;100.00;101745.50;5115814;28;20398;-45
2023/09/07 01:26:05;;;;;;;0.10;0.10;;;;;;;14.62;100.00;101736.66;5116806;28;20051;-46
2023/09/07 01:28:30;;;;;;;;;;;;;;;14.74;100.00;101736.13;5116747;28;20035;-46
2023/09/07 01:30:57;;;;;;;0.10;0.10;;;;;;;14.58;100.00;101734.81;5115901;28;19912;-50
2023/09/07 01:33:23;;;;;;;0.00;0.00;;;;;;;14.65;100.00;101730.69;5116581;28;20035;-47
2023/09/07 01:35:48;;;;;;;0.10;0.10;;;;;;;14.67;100.00;101730.72;5116753;28;20020;-45
2023/09/07 01:38:13;;;;;;;0.10;0.10;;;;;;;14.56;100.00;101731.28;5115513;28;20471;-46
2023/09/07 01:40:38;;;;;;;0.10;0.10;;;;;;;14.65;100.00;101728.09;5116678;28;20027;-49
2023/09/07 01:43:04;;;;;;;0.00;0.00;;;;;;;14.50;100.00;101731.13;5116678;28;20019;-48
2023/09/07 01:45:29;;;;;;;0.10;0.10;;;;;;;14.50;100.00;101723.34;5115095;28;20479;-46
2023/09/07 01:47:54;;;;;;;0.10;0.10;;;;;;;14.44;100.00;101726.63;5116593;28;20053;-45
2023/09/07 01:50:20;;;;;;;0.10;0.10;;;;;;;14.34;100.00;101716.84;5115998;28;20075;-46
2023/09/07 01:52:48;;;;;;;0.10;0.10;;;;;;;14.24;100.00;101726.09;5115623;28;20020;-45
2023/09/07 01:55:14;;;;;;;0.10;0.10;;;;;;;14.33;100.00;101717.69;5116121;28;20054;-50
2023/09/07 01:57:39;;;;;;;0.10;0.10;;;;;;;14.41;100.00;101715.28;5115305;28;20035;-46
2023/09/07 02:00:05;;;;;;;0.10;0.10;;;;;;;14.36;100.00;101722.97;5116040;28;20027;-45
2023/09/07 02:02:30;;;;;;;0.10;0.10;;;;;;;14.42;100.00;101719.66;5115697;28;20352;-46
2023/09/07 02:04:56;;;;;;;0.00;0.00;;;;;;;14.39;100.00;101723.03;5115368;28;20030;-45
2023/09/07 02:07:21;;;;;;;0.10;0.10;;;;;;;14.34;100.00;101714.25;5115530;28;20099;-48
2023/09/07 02:09:46;;;;;;;0.10;0.10;;;;;;;14.29;100.00;101716.75;5116460;28;20486;-45
2023/09/07 02:12:12;;;;;;;0.10;0.10;;;;;;;14.25;100.00;101719.19;5114756;28;20363;-45
2023/09/07 02:14:37;;;;;;;0.10;0.10;;;;;;;14.20;100.00;101713.84;5115940;28;20020;-46
2023/09/07 02:17:02;;;;;;;0.10;0.10;;;;;;;14.16;100.00;101714.63;5115727;28;20524;-45
2023/09/07 02:19:28;;;;;;;0.10;0.10;;;;;;;14.10;100.00;101719.63;5114847;28;20023;-45
2023/09/07 02:21:54;;;;;;;0.10;0.10;;;;;;;14.10;100.00;101720.50;5115842;28;20024;-50
2023/09/07 02:24:19;;;;;;;0.10;0.10;;;;;;;14.03;100.00;101717.69;5115421;28;20102;-46
2023/09/07 02:26:47;;;;;;;0.10;0.10;;;;;;;13.98;100.00;101717.53;5114852;28;20024;-46
2023/09/07 02:29:13;;;;;;;0.10;0.10;;;;;;;14.05;100.00;101716.91;5115091;28;20425;-47
2023/09/07 02:31:39;;;;;;;0.10;0.10;;;;;;;14.02;100.00;101715.94;5115539;27;20020;-50
2023/09/07 02:34:05;;;;;;;0.00;0.00;;;;;;;14.05;100.00;101721.22;5114795;28;20485;-46
2023/09/07 02:36:31;;;;;;;0.10;0.10;;;;;;;14.05;100.00;101716.91;5115124;28;20392;-48
2023/09/07 02:38:56;;;;;;;0.10;0.10;;;;;;;14.09;100.00;101712.69;5115539;28;20119;-45
2023/09/07 02:41:22;;;;;;;0.10;0.10;;;;;;;14.01;100.00;101717.66;5114322;28;20118;-49
2023/09/07 02:43:47;;;;;;;0.10;0.10;;;;;;;13.99;100.00;101721.91;5115119;28;20024;-44
2023/09/07 02:46:12;;;;;;;0.10;0.10;;;;;;;14.05;100.00;101718.63;5114902;28;20016;-45
2023/09/07 02:48:38;;;;;;;0.03;0.03;;;;;;;14.03;100.00;101718.56;5114280;28;20081;-47
2023/09/07 02:51:03;;;;;;;0.03;0.03;;;;;;;14.02;100.00;101718.53;5115241;28;20108;-50
2023/09/07 02:53:29;;;;;;;0.10;0.10;;;;;;;14.02;100.00;101718.53;5114661;28;20028;-47
2023/09/07 02:55:55;;;;;;;0.10;0.10;;;;;;;14.09;100.00;101718.75;5114225;28;20043;-46
2023/09/07 02:58:21;;;;;;;0.10;0.10;;;;;;;13.99;100.00;101714.13;5114820;28;20034;-46
2023/09/07 03:00:47;;;;;;;0.10;0.10;;;;;;;14.00;100.00;101714.16;5114167;28;20070;-49
2023/09/07 03:03:13;;;;;;;0.10;0.10;;;;;;;14.00;100.00;101708.13;5114796;27;20412;-46
2023/09/07 03:05:40;;;;;;;0.10;0.10;;;;;;;13.97;100.00;101713.22;5115147;28;20035;-46
2023/09/07 03:08:08;;;;;;;0.10;0.10;;;;;;;14.00;100.00;101708.13;5113990;28;20126;-48
2023/09/07 03:10:36;;;;;;;0.10;0.10;;;;;;;13.95;100.00;101709.69;5114555;28;20027;-47
2023/09/07 03:13:01;;;;;;;0.10;0.10;;;;;;;13.95;100.00;101710.56;5114961;28;20057;-47
2023/09/07 03:15:27;;;;;;;0.10;0.10;;;;;;;13.91;100.00;101711.31;5113702;28;20422;-45
2023/09/07 03:17:52;;;;;;;0.03;0.03;;;;;;;13.94;100.00;101718.28;5114488;28;20032;-48
2023/09/07 03:20:18;;;;;;;0.10;0.10;;;;;;;13.95;100.00;101725.25;5114081;28;20019;-46
2023/09/07 03:22:44;;;;;;;0.10;0.10;;;;;;;13.84;100.00;101722.34;5113962;28;20028;-47
2023/09/07 03:25:10;;;;;;;0.10;0.10;;;;;;;13.86;100.00;101719.78;5114589;28;20023;-47
2023/09/07 03:27:36;;;;;;;0.10;0.10;;;;;;;13.87;100.00;101716.38;5114267;28;20465;-45
2023/09/07 03:30:03;;;;;;;0.10;0.10;;;;;;;13.80;100.00;101710.09;5113843;28;20088;-45
2023/09/07 03:32:32;;;;;;;0.10;0.10;;;;;;;13.83;100.00;101713.66;5114251;28;20023;-46
2023/09/07 03:34:58;;;;;;;0.10;0.10;;;;;;;13.78;100.00;101711.78;5114247;28;20024;-46
2023/09/07 03:37:23;;;;;;;0.10;0.10;;;;;;;13.75;100.00;101719.44;5113492;28;20091;-48
2023/09/07 03:39:49;;;;;;;0.10;0.10;;;;;;;13.68;100.00;101715.78;5114035;28;20482;-50
2023/09/07 03:42:14;;;;;;;0.08;0.08;;;;;;;13.66;100.00;101725.25;5113800;28;20031;-48
2023/09/07 03:44:39;;;;;;;0.10;0.10;;;;;;;13.66;100.00;101730.44;5113740;28;20054;-46
2023/09/07 03:47:05;;;;;;;0.10;0.10;;;;;;;13.57;100.00;101727.53;5114372;28;20049;-46
2023/09/07 03:49:33;;;;;;;0.10;0.10;;;;;;;13.54;100.00;101727.44;5113952;28;20528;-45
2023/09/07 03:51:59;;;;;;;0.10;0.10;;;;;;;13.58;100.00;101731.88;5113453;27;20072;-45
2023/09/07 03:54:24;;;;;;;0.10;0.10;;;;;;;13.62;100.00;101731.13;5113774;28;20471;-46
2023/09/07 03:56:49;;;;;;;0.10;0.10;;;;;;;13.57;100.00;101728.44;5113808;28;20079;-45
2023/09/07 03:59:15;;;;;;;0.03;0.03;;;;;;;13.50;100.00;101726.47;5113131;28;20024;-48
2023/09/07 04:01:40;;;;;;;0.10;0.10;;;;;;;13.49;100.00;101732.47;5113984;28;20030;-47
2023/09/07 04:04:05;;;;;;;0.10;0.10;;;;;;;13.47;100.00;101726.38;5113056;28;20022;-46
2023/09/07 04:06:31;;;;;;;0.10;0.10;;;;;;;13.43;100.00;101721.94;5113394;28;20055;-46
2023/09/07 04:08:56;;;;;;;0.10;0.10;;;;;;;13.46;100.00;101717.72;5113687;28;20032;-46
2023/09/07 04:11:21;;;;;;;0.10;0.10;;;;;;;13.42;100.00;101718.44;5112658;28;20047;-45
2023/09/07 04:13:47;;;;;;;0.00;0.00;;;;;;;13.44;100.00;101727.16;5113967;28;20048;-47
2023/09/07 04:16:12;;;;;;;0.10;0.10;;;;;;;13.38;100.00;101719.19;5113795;28;20431;-45
2023/09/07 04:18:38;;;;;;;0.10;0.10;;;;;;;13.36;100.00;101719.94;5113049;28;20015;-48
2023/09/07 04:21:07;;;;;;;0.10;0.10;;;;;;;13.44;100.00;101721.06;5113855;28;20449;-49
2023/09/07 04:23:34;;;;;;;0.10;0.10;;;;;;;13.37;100.00;101716.56;5113308;28;20528;-45
2023/09/07 04:26:11;;;;;;;0.10;0.10;;;;;;;13.33;100.00;101724.16;5112677;28;20115;-46
2023/09/07 04:28:38;;;;;;;0.10;0.10;;;;;;;13.36;100.00;101719.94;5113408;28;20378;-50
2023/09/07 04:31:06;;;;;;;0.10;0.10;;;;;;;13.32;100.00;101721.53;5113508;28;20107;-45
2023/09/07 04:33:34;;;;;;;0.10;0.10;;;;;;;13.31;100.00;101732.72;5112683;28;20123;-47
2023/09/07 04:36:14;;;;;;;0.10;0.10;;;;;;;13.32;100.00;101729.31;5113439;28;20027;-45
2023/09/07 04:38:43;;;;;;;0.10;0.10;;;;;;;13.27;100.00;101724.00;5113360;28;20475;-45
2023/09/07 04:41:12;;;;;;;0.17;0.17;;;;;;;13.22;100.00;101732.41;5112475;28;20528;-45
2023/09/07 04:43:40;;;;;;;0.10;0.10;;;;;;;13.18;100.00;101724.56;5113300;28;20032;-48
2023/09/07 04:46:06;;;;;;;0.10;0.10;;;;;;;13.22;100.00;101735.00;5113392;28;20107;-45
2023/09/07 04:48:34;;;;;;;0.10;0.10;;;;;;;13.19;100.00;101735.78;5111941;28;20394;-46
2023/09/07 04:51:05;;;;;;;0.10;0.10;;;;;;;13.25;100.00;101735.13;5113427;28;20030;-45
2023/09/07 04:53:32;;;;;;;0.10;0.10;;;;;;;13.16;100.00;101726.22;5111933;28;20467;-46
2023/09/07 04:55:58;;;;;;;0.10;0.10;;;;;;;13.12;100.00;101729.53;5113058;28;20040;-47
2023/09/07 04:58:24;;;;;;;0.10;0.10;;;;;;;13.06;100.00;101729.31;5112876;28;20281;-45
2023/09/07 05:00:50;;;;;;;0.10;0.10;;;;;;;13.03;100.00;101729.22;5112322;28;20534;-45
2023/09/07 05:03:15;;;;;;;0.10;0.10;;;;;;;13.03;100.00;101729.22;5112880;28;20027;-48
2023/09/07 05:05:45;;;;;;;0.00;0.00;;;;;;;13.07;100.00;101741.44;5113010;28;20031;-45
2023/09/07 05:08:10;;;;;;;0.10;0.10;;;;;;;12.98;100.00;101730.78;5112370;28;20031;-48
2023/09/07 05:10:36;;;;;;;0.00;0.00;;;;;;;12.99;100.00;101728.25;5113022;28;20020;-45
2023/09/07 05:13:02;;;;;;;0.10;0.10;;;;;;;12.91;100.00;101733.97;5113247;28;20059;-47
2023/09/07 05:15:27;;;;;;;0.10;0.10;;;;;;;12.99;100.00;101729.97;5111971;28;20031;-48
2023/09/07 05:17:53;;;;;;;0.10;0.10;;;;;;;13.09;100.00;101739.81;5112950;28;20028;-45
2023/09/07 05:20:19;;;;;;;0.13;0.13;;;;;;;13.08;100.00;101740.63;5112795;28;20024;-45
2023/09/07 05:22:45;;;;;;;0.10;0.10;;;;;;;13.14;100.00;101743.41;5112345;28;20035;-48
2023/09/07 05:25:11;;;;;;;0.10;0.10;;;;;;;13.11;100.00;101738.13;5112701;28;20367;-45
2023/09/07 05:27:36;;;;;;;0.10;0.10;;;;;;;13.07;100.00;101748.34;5112905;28;20016;-45
2023/09/07 05:30:03;;;;;;;0.10;0.10;;;;;;;13.12;100.00;101745.06;5111970;28;20047;-45
2023/09/07 05:32:28;;;;;;;0.10;0.10;;;;;;;13.11;100.00;101748.47;5112410;28;20391;-49
2023/09/07 05:34:53;;;;;;;0.20;0.20;;;;;;;13.15;100.00;101747.75;5112756;28;20489;-46
2023/09/07 05:37:18;;;;;;;0.10;0.10;;;;;;;13.16;100.00;101751.22;5111858;28;20371;-46
2023/09/07 05:39:44;;;;;;;0.10;0.10;;;;;;;13.14;100.00;101755.47;5113157;28;20444;-46
2023/09/07 05:42:10;;;;;;;0.10;0.10;;;;;;;13.21;100.00;101760.03;5114399;28;20027;-46
2023/09/07 05:44:35;;;;;;;0.10;0.10;;;;;;;13.23;100.00;101757.50;5115334;28;20077;-46
2023/09/07 05:47:02;;;;;;;0.10;0.10;;;;;;;13.24;100.00;101759.25;5116278;28;20026;-46
2023/09/07 05:49:27;;;;;;;0.10;0.10;;;;;;;13.31;100.00;101761.19;5115872;28;20031;-45
2023/09/07 05:51:55;;;;;;;0.10;0.10;;;;;;;13.38;100.00;101763.19;5115707;28;20356;-46
2023/09/07 05:54:20;;;;;;;;;;;;;;;13.46;100.00;101760.88;5116672;28;20032;-50
2023/09/07 05:56:46;;;;;;;0.10;0.10;;;;;;;13.57;100.00;101758.59;5115384;28;19922;-46
2023/09/07 05:59:11;;;;;;;0.10;0.10;;;;;;;13.62;100.00;101765.72;5116029;28;20041;-45
2023/09/07 06:01:39;;;;;;;0.10;0.10;;;;;;;13.73;100.00;101766.03;5116100;28;20130;-47
2023/09/07 06:04:05;;;;;;;0.10;0.10;;;;;;;13.73;100.00;101766.03;5115343;28;20054;-47
2023/09/07 06:06:31;;;;;;;0.10;0.10;;;;;;;13.86;100.00;101771.63;5115909;28;20540;-46
2023/09/07 06:08:58;;;;;;;0.10;0.10;;;;;;;13.97;100.00;101772.84;5116138;28;20059;-45
2023/09/07 06:11:23;;;;;;;0.10;0.10;;;;;;;13.96;100.00;101776.25;5115038;28;20114;-46
2023/09/07 06:13:49;;;;;;;0.10;0.10;;;;;;;14.02;100.00;101775.53;5116134;28;20107;-46
2023/09/07 06:16:14;;;;;;;0.10;0.10;;;;;;;14.11;100.00;101781.91;5115426;28;20016;-48
2023/09/07 06:18:39;;;;;;;0.10;0.10;;;;;;;14.29;100.00;101780.66;5115069;28;20020;-45
2023/09/07 06:21:05;;;;;;;0.10;0.10;;;;;;;14.35;100.00;101777.38;5116054;28;20031;-45
2023/09/07 06:23:31;;;;;;;0.10;0.10;;;;;;;14.40;100.00;101784.47;5115634;28;20140;-45
2023/09/07 06:25:57;;;;;;;0.10;0.10;;;;;;;14.51;100.00;101789.06;5115043;28;20062;-46
2023/09/07 06:28:22;;;;;;;0.10;0.10;;;;;;;14.53;100.00;101793.47;5115398;27;20039;-46
2023/09/07 06:30:48;;;;;;;0.10;0.10;;;;;;;14.71;100.00;101787.09;5115630;27;20090;-45
2023/09/07 06:33:13;;;;;;;0.10;0.10;;;;;;;14.79;100.00;101794.22;5114431;28;20471;-48
2023/09/07 06:35:38;;;;;;;0.10;0.10;;;;;;;14.84;100.00;101794.34;5115379;28;20081;-45
2023/09/07 06:38:04;;;;;;;0.10;0.10;;;;;;;14.85;100.00;101790.94;5115413;28;20114;-45
2023/09/07 06:40:29;;;;;;;0.10;0.10;;;;;;;14.96;100.00;101802.50;5114518;28;20055;-45
2023/09/07 06:42:56;;;;;;;0.10;0.10;;;;;;;15.11;100.00;101798.53;5115391;28;20024;-50
2023/09/07 06:45:23;;;;;;;0.10;0.10;;;;;;;15.22;100.00;101796.19;5115130;28;20073;-45
2023/09/07 06:47:50;;;;;;;0.10;0.10;;;;;;;15.25;100.00;101798.91;5114372;28;20060;-45
2023/09/07 06:50:15;;;;;;;0.10;0.10;;;;;;;15.34;100.00;101800.81;5115079;28;20019;-46
2023/09/07 06:52:41;;;;;;;0.13;0.13;;;;;;;15.45;100.00;101795.09;5114886;28;20097;-46
2023/09/07 06:55:06;;;;;;;0.00;0.00;;;;;;;15.58;100.00;101795.38;5113591;28;20067;-46
2023/09/07 06:57:33;;;;;;;0.10;0.10;;;;;;;15.78;100.00;101791.50;5114835;28;20036;-46
2023/09/07 06:59:59;;;;;;;0.10;0.10;;;;;;;15.93;100.00;101800.53;5114266;28;20122;-45
2023/09/07 07:02:24;;;;;;;0.10;0.10;;;;;;;15.95;100.00;101802.31;5114586;28;20471;-50
2023/09/07 07:04:49;;;;;;;0.10;0.10;;;;;;;16.03;100.00;101794.69;5115145;28;20032;-46
2023/09/07 07:07:15;;;;;;;0.10;0.10;;;;;;;16.14;100.00;101802.75;5113872;28;20430;-45
2023/09/07 07:09:40;;;;;;;0.10;0.10;;;;;;;16.22;100.00;101801.19;5114931;28;20502;-45
2023/09/07 07:12:06;;;;;;;0.10;0.10;;;;;;;16.39;100.00;101814.53;5114786;28;20047;-46
2023/09/07 07:14:31;;;;;;;0.10;0.10;;;;;;;16.55;100.00;101814.88;5113666;28;20027;-46
2023/09/07 07:16:56;;;;;;;0.10;0.10;;;;;;;16.77;100.00;101806.66;5114653;28;20023;-46
2023/09/07 07:19:22;;;;;;;0.10;0.10;;;;;;;16.99;100.00;101812.31;5114516;28;20379;-48
2023/09/07 07:21:48;;;;;;;0.10;0.10;;;;;;;17.23;100.00;101806.63;5113575;28;20107;-45
2023/09/07 07:24:14;;;;;;;0.10;0.10;;;;;;;17.44;100.00;101815.66;5114351;28;20027;-46
2023/09/07 07:26:39;;;;;;;0.10;0.10;;;;;;;17.48;100.00;101811.38;5114504;28;20050;-46
2023/09/07 07:29:06;;;;;;;0.10;0.10;;;;;;;17.54;100.00;101819.31;5113554;27;20102;-45
2023/09/07 07:31:31;;;;;;;0.10;0.10;;;;;;;17.76;100.00;101810.97;5114132;28;20111;-46
2023/09/07 07:33:59;;;;;;;0.10;0.10;;;;;;;18.03;100.00;101807.03;5114486;28;20431;-47
2023/09/07 07:36:24;;;;;;;0.00;0.00;;;;;;;18.16;100.00;101807.22;5113360;28;20068;-46
2023/09/07 07:38:50;;;;;;;0.10;0.10;;;;;;;18.13;100.00;101817.59;5114346;28;20384;-45
2023/09/07 07:41:15;;;;;;;0.00;0.00;;;;;;;18.42;100.00;101815.38;5113907;28;20027;-46
2023/09/07 07:43:40;;;;;;;0.10;0.10;;;;;;;18.51;100.00;101815.50;5113312;28;20024;-46
2023/09/07 07:46:07;;;;;;;0.00;0.00;;;;;;;18.80;100.00;101814.97;5113956;28;20035;-45
2023/09/07 07:48:35;;;;;;;0.00;0.00;;;;;;;19.00;100.00;101807.34;5113926;28;20027;-47
2023/09/07 07:51:03;;;;;;;0.10;0.10;;;;;;;18.97;100.00;101809.97;5113389;28;20055;-45
2023/09/07 07:53:28;;;;;;;0.08;0.08;;;;;;;19.23;100.00;101812.81;5113678;28;20034;-47
2023/09/07 07:55:55;;;;;;;0.00;0.00;;;;;;;19.38;100.00;101805.97;5113689;28;20040;-46
2023/09/07 07:58:21;;;;;;;0.00;0.00;;;;;;;19.53;100.00;101802.59;5112824;27;20077;-46
2023/09/07 08:00:47;;;;;;;0.05;0.05;;;;;;;19.66;100.00;101803.56;5113809;28;20027;-45
2023/09/07 08:03:13;;;;;;;0.10;0.10;;;;;;;19.86;100.00;101801.13;5113083;28;20023;-46
2023/09/07 08:05:39;;;;;;;0.10;0.10;;;;;;;20.10;100.00;101808.22;5113671;28;20031;-46
2023/09/07 08:08:05;;;;;;;0.00;0.00;;;;;;;20.39;100.00;101804.91;5113867;28;20027;-47
2023/09/07 08:10:34;;;;;;;0.00;0.00;;;;;;;20.53;100.00;101804.94;5112742;28;20088;-47
2023/09/07 08:12:59;;;;;;;0.00;0.00;;;;;;;20.76;100.00;101801.53;5113586;28;20020;-46
2023/09/07 08:15:24;;;;;;;0.10;0.00;;;;;;;20.93;100.00;101797.22;5113545;28;20065;-49
2023/09/07 08:17:51;;;;;;;0.10;0.10;;;;;;;21.15;100.00;101798.13;5112920;28;20034;-47
2023/09/07 08:20:16;;;;;;;0.10;0.00;;;;;;;21.06;100.00;101792.88;5113362;28;20467;-48
2023/09/07 08:22:42;;;;;;;0.00;0.00;;;;;;;21.24;100.00;101792.00;5113634;28;20020;-45
2023/09/07 08:25:08;;;;;;;0.00;0.00;;;;;;;21.46;98.67;101791.97;5112679;28;20041;-46
2023/09/07 08:27:34;;;;;;;0.00;0.00;;;;;;;21.63;91.95;101782.41;5113218;28;20063;-48
2023/09/07 08:29:59;;;;;;;0.00;0.00;;;;;;;21.74;89.99;101782.38;5113358;28;20048;-45
2023/09/07 08:32:25;;;;;;;0.00;0.00;;;;;;;21.87;91.93;101773.59;5112227;28;20479;-45
2023/09/07 08:34:50;;;;;;;0.00;0.00;;;;;;;21.83;91.25;101773.59;5113514;28;20403;-47
2023/09/07 08:37:16;;;;;;;0.00;0.00;;;;;;;22.01;92.00;101781.44;5113233;28;20019;-46
2023/09/07 08:39:44;;;;;;;0.00;0.00;;;;;;;22.17;88.81;101782.25;5112586;28;20036;-48
2023/09/07 08:42:10;;;;;;;0.00;0.00;;;;;;;22.28;87.96;101776.94;5113205;28;20081;-46
2023/09/07 08:44:37;;;;;;;0.00;0.00;;;;;;;22.29;87.09;101778.69;5112863;28;20023;-46
2023/09/07 08:47:04;;;;;;;0.00;0.00;;;;;;;22.47;84.42;101779.53;5112680;28;20074;-50
2023/09/07 08:49:30;;;;;;;0.00;0.00;;;;;;;22.48;86.44;101776.03;5112933;28;20027;-45
2023/09/07 08:51:59;;;;;;;0.00;0.00;;;;;;;22.70;88.49;101776.78;5113463;28;20152;-45
2023/09/07 08:54:25;;;;;;;0.00;0.00;;;;;;;22.80;82.17;101773.22;5112240;28;20379;-49
2023/09/07 08:56:51;;;;;;;0.00;0.00;;;;;;;22.92;80.75;101772.25;5112928;28;20060;-45
2023/09/07 08:59:16;;;;;;;0.00;0.00;;;;;;;23.06;79.70;101771.25;5113082;28;20028;-47
2023/09/07 09:01:42;;;;;;;0.00;0.00;;;;;;;23.12;79.15;101772.06;5112313;28;20030;-48
2023/09/07 09:04:08;;;;;;;0.08;0.08;;;;;;;23.18;79.57;101765.94;5113138;28;20016;-50
2023/09/07 09:06:33;;;;;;;0.00;0.00;;;;;;;23.33;77.70;101768.44;5112117;28;20348;-50
2023/09/07 09:08:59;;;;;;;0.00;0.00;;;;;;;23.54;78.45;101769.13;5112995;28;20032;-45
2023/09/07 09:11:26;;;;;;;0.00;0.00;;;;;;;23.60;76.95;101766.44;5112756;28;20051;-46
2023/09/07 09:13:53;;;;;;;0.00;0.00;;;;;;;23.59;73.94;101769.06;5112440;28;20027;-45
2023/09/07 09:16:19;;;;;;;0.00;0.00;;;;;;;23.76;77.22;101767.13;5113150;28;20027;-46
2023/09/07 09:18:56;;;;;;;0.00;0.00;;;;;;;23.91;73.71;101774.03;5117034;28;20106;-48
2023/09/07 09:21:23;;;;;;;0.00;0.00;;;;;;;23.99;72.36;101785.34;5115847;28;20482;-48
2023/09/07 09:23:50;;;;;;;0.00;0.00;;;;;;;24.17;71.11;101779.00;5116794;28;20059;-50
2023/09/07 09:26:16;;;;;;;0.00;0.00;;;;;;;24.24;69.65;101782.41;5116460;28;20015;-49
2023/09/07 09:28:44;;;;;;;0.00;0.00;;;;;;;24.37;70.08;101774.38;5116163;28;20081;-47
2023/09/07 09:31:12;;;;;;;0.00;0.00;;;;;;;24.62;71.29;101767.84;5116919;28;20020;-47
2023/09/07 09:33:39;;;;;;;0.00;0.00;;;;;;;25.24;71.31;101766.91;5116777;28;20042;-50
2023/09/07 09:36:05;;;;;;;0.00;0.00;;;;;;;25.07;67.44;101755.78;5115992;28;20031;-47
2023/09/07 09:38:32;;;;;;;0.00;0.00;;;;;;;25.23;65.01;101759.91;5116365;28;20552;-47
2023/09/07 09:40:58;;;;;;;0.00;0.00;;;;;;;25.97;66.83;101761.16;5116761;28;20051;-47
2023/09/07 09:43:25;;;;;;;0.00;0.00;;;;;;;26.34;66.27;101750.75;5115747;28;20047;-50
2023/09/07 09:45:52;;;;;;;0.00;0.00;;;;;;;26.33;60.60;101757.81;5116448;28;20019;-47
2023/09/07 09:48:19;;;;;;;0.00;0.00;;;;;;;27.02;58.34;101757.13;5116065;28;20390;-49
2023/09/07 09:50:46;;;;;;;0.00;0.00;;;;;;;27.04;55.97;101772.06;5115540;28;20023;-46
2023/09/07 09:53:15;;;;;;;0.00;0.00;;;;;;;27.46;55.11;101765.72;5116011;28;20475;-46
2023/09/07 09:55:41;;;;;;;0.00;0.00;;;;;;;27.82;51.08;101757.69;5116094;27;20490;-48
2023/09/07 09:58:06;;;;;;;0.00;0.00;;;;;;;27.95;52.04;101754.69;5115430;28;20028;-47
2023/09/07 10:00:37;;;;;;;0.00;0.00;;;;;;;29.17;50.50;101761.53;5115957;28;20019;-46
2023/09/07 10:03:11;;;;;;;0.00;0.00;;;;;;;30.04;46.70;101762.00;5115355;28;20019;-47
2023/09/07 10:05:37;;;;;;;0.00;0.00;;;;;;;30.56;45.71;101759.13;5116102;28;20523;-45
2023/09/07 10:08:14;;;;;;;0.00;0.00;;;;;;;30.34;43.22;101765.28;5116150;28;20110;-46
2023/09/07 10:10:42;;;;;;;0.00;0.00;;;;;;;30.43;42.95;101757.88;5115358;28;20059;-50
2023/09/07 10:13:07;;;;;;;0.00;0.00;;;;;;;30.29;41.28;101758.41;5116183;28;20072;-47
2023/09/07 10:15:35;;;;;;;0.00;0.00;;;;;;;30.47;40.83;101760.38;5115715;28;20114;-46
2023/09/07 10:18:10;;;;;;;0.00;0.00;;;;;;;30.38;42.48;101763.34;5115077;28;20038;-46
2023/09/07 10:20:58;;;;;;;0.00;0.00;;;;;;;30.81;45.05;101761.66;5115599;28;20027;-46
2023/09/07 10:23:37;;;;;;;0.00;0.00;;;;;;;31.88;43.51;101761.56;5115510;28;20031;-50
2023/09/07 10:26:06;;;;;;;0.00;0.00;;;;;;;31.61;39.82;101756.53;5115027;28;20111;-46
2023/09/07 10:28:32;;;;;;;0.00;0.00;;;;;;;31.93;39.74;101763.09;5115157;28;20024;-47
2023/09/07 10:31:13;;;;;;;0.00;0.00;;;;;;;32.41;41.99;101755.53;5115141;28;20468;-52
2023/09/07 10:33:39;;;;;;;0.00;0.00;;;;;;;32.59;38.36;101759.13;5115801;28;20142;-46
2023/09/07 10:36:05;;;;;;;0.00;0.00;;;;;;;33.60;37.67;101751.38;5115499;28;20060;-47
2023/09/07 10:38:35;;;;;;;0.00;0.00;;;;;;;34.11;37.43;101752.16;5114277;28;20493;-47
2023/09/07 10:41:02;;;;;;;0.00;0.00;;;;;;;34.45;34.49;101754.78;5115269;28;20489;-46
2023/09/07 10:43:29;;;;;;;0.00;0.00;;;;;;;33.64;34.60;101748.44;5115258;28;20098;-49
2023/09/07 10:45:56;;;;;;;;;;;;;;;34.64;39.82;101743.84;5115114;28;20034;-51
2023/09/07 10:48:21;;;;;;;0.00;0.00;;;;;;;33.81;34.04;101739.53;5114965;28;19984;-48
2023/09/07 10:50:48;;;;;;;0.00;0.00;;;;;;;34.52;34.04;101739.22;5115368;28;20397;-51
2023/09/07 10:53:14;;;;;;;0.00;0.00;;;;;;;34.90;34.71;101738.81;5114236;28;20036;-50
2023/09/07 10:55:40;;;;;;;0.00;0.00;;;;;;;34.57;32.38;101732.63;5115037;28;20039;-50
2023/09/07 10:58:06;;;;;;;0.00;0.00;;;;;;;34.27;32.13;101735.25;5115134;28;20098;-51
2023/09/07 11:00:32;;;;;;;0.00;0.00;;;;;;;34.70;32.81;101727.44;5114040;28;20035;-47
2023/09/07 11:02:57;;;;;;;0.00;0.00;;;;;;;34.82;32.69;101725.84;5115065;28;20033;-47
2023/09/07 11:05:23;;;;;;;0.00;0.00;;;;;;;34.63;31.71;101731.44;5114777;28;20379;-51
2023/09/07 11:07:49;;;;;;;0.00;0.00;;;;;;;34.19;31.98;101716.09;5114059;28;20474;-51
2023/09/07 11:10:14;;;;;;;0.00;0.00;;;;;;;33.52;31.38;101722.38;5114536;28;20024;-50
2023/09/07 11:12:40;;;;;;;0.00;0.00;;;;;;;34.24;33.09;101716.69;5105846;28;20420;-48
2023/09/07 11:15:09;;;;;;;0.00;0.00;;;;;;;35.02;32.64;101722.00;5093519;28;20024;-51